Wittenoom, Australia
Current Conditions -  °F | °C
As of 4:00 PM on Wednesday 22 Oct 2014 (Local Time) from YPBO Reporting Station
Clear Clear  
Wind Chill: 97°   Ceiling: Unl
Heat Index: 97°   Visibility: 6mi
Dew Point: 34°   Wind: 15mph
Humidity: 11%   Direction: 240°WSW
Pressure: 29.94"   Gusts: NA
Location:  22.24°S, 118.34°E
Report Text: YPBO 220800Z AUTO 24013KT 9999 // NCD 36/01 Q1014
Loading
Personal Weather Stations






























Interactive Weather Map
Tropical Storm Tracking
New forecast layout! Learn more

10-Day Weather Forecast

Advertisements
Track Severe Weather on mobile